Time;durP1;ratioP1;P1;durP2;ratioP2;P2;SDS_P1;SDS_P2;PMS_P1;PMS_P2;Temp;Humidity;BMP_temperature;BMP_pressure;BME280_temperature;BME280_humidity;BME280_pressure;Samples;Min_cycle;Max_cycle;Signal;HPM_P1;HPM_P2
2022/01/25 00:08:39;;;;;;;19.90;9.30;;;;;;;-4.96;53.76;101284.63;3152213;28;20502;-62
2022/01/25 00:10:39;;;;;;;14.38;7.13;;;;;;;-5.03;53.74;101284.38;3151005;28;20558;-62
2022/01/25 00:25:11;;;;;;;19.50;8.77;;;;;;;-5.08;54.03;101290.91;3154797;28;20047;-62
2022/01/25 00:26:48;;;;;;;17.58;7.75;;;;;;;-5.08;54.13;101287.50;3156034;28;20483;-62
2022/01/25 00:28:24;;;;;;;19.08;8.80;;;;;;;-5.07;54.10;101284.16;3155731;28;20113;-62
2022/01/25 00:30:09;;;;;;;19.40;8.60;;;;;;;-5.08;53.95;101282.44;3154647;28;20189;-62
2022/01/25 00:31:43;;;;;;;18.48;8.55;;;;;;;-5.09;54.06;101284.13;3156807;28;20293;-61
2022/01/25 00:33:14;;;;;;;20.42;8.80;;;;;;;-5.09;54.07;101276.50;3153411;28;20533;-62
2022/01/25 00:34:46;;;;;;;20.90;8.48;;;;;;;-5.08;54.05;101284.97;3154558;28;20130;-62
2022/01/25 00:36:20;;;;;;;17.58;8.48;;;;;;;-5.08;53.99;101283.28;3155492;28;20424;-62
2022/01/25 00:37:54;;;;;;;22.40;8.93;;;;;;;-5.09;53.96;101285.75;3152118;28;21064;-62
2022/01/25 00:39:26;;;;;;;19.27;8.50;;;;;;;-5.11;53.95;101284.84;3154542;28;20043;-62
2022/01/25 00:40:57;;;;;;;18.40;8.50;;;;;;;-5.14;53.93;101292.34;3152383;28;20048;-62
2022/01/25 00:42:29;;;;;;;20.90;7.88;;;;;;;-5.12;53.85;101283.09;3155544;28;20036;-62
2022/01/25 00:44:02;;;;;;;20.70;7.88;;;;;;;-5.17;53.72;101279.50;3157172;28;20093;-61
2022/01/25 00:45:34;;;;;;;17.25;8.45;;;;;;;-5.16;53.75;101297.34;3154979;28;20048;-62
2022/01/25 00:47:07;;;;;;;16.35;8.02;;;;;;;-5.16;53.75;101292.25;3154159;28;20062;-62
2022/01/25 00:48:45;;;;;;;17.45;8.30;;;;;;;-5.19;53.78;101297.22;3152492;28;20053;-62
2022/01/25 00:50:17;;;;;;;16.67;7.78;;;;;;;-5.20;53.67;101292.09;3152973;28;20063;-62
2022/01/25 00:52:05;;;;;;;19.02;8.00;;;;;;;-5.19;53.72;101291.28;3156842;28;20712;-62
2022/01/25 00:55:31;;;;;;;16.23;7.43;;;;;;;-5.23;53.67;101289.41;3153304;28;20051;-62
2022/01/25 00:57:03;;;;;;;20.15;7.80;;;;;;;-5.25;53.58;101279.19;3151296;28;20045;-62
2022/01/25 00:58:35;;;;;;;16.85;7.32;;;;;;;-5.24;53.50;101277.50;3155514;28;20128;-62
2022/01/25 01:00:10;;;;;;;20.48;7.47;;;;;;;-5.21;53.55;101292.88;3154846;28;20052;-62
2022/01/25 01:01:43;;;;;;;27.60;7.50;;;;;;;-5.23;53.47;101279.25;3153435;28;20102;-63
2022/01/25 01:03:15;;;;;;;15.90;7.65;;;;;;;-5.27;53.51;101288.38;3155318;28;20048;-62
2022/01/25 01:04:47;;;;;;;18.98;7.50;;;;;;;-5.27;53.46;101284.19;3155826;28;20060;-62
2022/01/25 01:06:19;;;;;;;17.83;7.93;;;;;;;-5.29;53.42;101283.25;3152161;28;20101;-62
2022/01/25 01:07:53;;;;;;;17.92;7.47;;;;;;;-5.27;53.37;101281.63;3157123;28;20123;-62
2022/01/25 01:09:26;;;;;;;17.25;7.32;;;;;;;-5.26;53.35;101280.00;3154800;28;20044;-61
2022/01/25 01:10:59;;;;;;;16.13;6.22;;;;;;;-5.31;53.46;101282.31;3154955;28;20543;-63
2022/01/25 01:13:01;;;;;;;15.93;6.45;;;;;;;-5.34;53.45;101282.19;3156390;28;20152;-62
2022/01/25 01:14:51;;;;;;;14.98;6.60;;;;;;;-5.39;53.46;101281.13;3155704;28;20120;-61
2022/01/25 01:16:50;;;;;;;19.85;7.05;;;;;;;-5.40;53.44;101281.94;3154317;28;20131;-61
2022/01/25 01:29:40;;;;;;;13.95;6.43;;;;;;;-5.46;53.33;101268.09;3152627;28;20075;-62
2022/01/25 01:31:20;;;;;;;14.77;6.13;;;;;;;-5.46;53.47;101268.97;3151522;28;20547;-62
2022/01/25 01:35:30;;;;;;;11.85;6.03;;;;;;;-5.51;53.34;101255.22;3137921;28;20116;-62
2022/01/25 01:45:05;;;;;;;12.80;6.03;;;;;;;-5.54;53.25;101252.53;3092414;28;20064;-61
2022/01/25 01:46:42;;;;;;;14.48;6.35;;;;;;;-5.56;53.23;101243.97;3113986;28;20488;-61
2022/01/25 01:48:26;;;;;;;14.65;5.82;;;;;;;-5.50;53.00;101245.13;3156370;28;20086;-62
2022/01/25 01:50:01;;;;;;;15.02;6.20;;;;;;;-5.50;52.92;101244.28;3153710;28;20048;-62
2022/01/25 01:51:36;;;;;;;12.50;5.93;;;;;;;-5.46;52.81;101246.13;3155574;28;20048;-62
2022/01/25 01:53:09;;;;;;;20.70;6.50;;;;;;;-5.45;52.80;101242.78;3151315;28;20509;-61
2022/01/25 01:54:41;;;;;;;14.45;6.55;;;;;;;-5.43;52.80;101243.72;3154177;28;20288;-62
2022/01/25 01:56:14;;;;;;;11.55;4.95;;;;;;;-5.42;52.81;101240.38;3156254;28;20047;-62
2022/01/25 01:57:46;;;;;;;15.57;6.15;;;;;;;-5.39;52.80;101243.03;3153119;28;20435;-61
2022/01/25 01:59:18;;;;;;;17.50;6.30;;;;;;;-5.39;52.70;101235.41;3155382;28;20175;-61
2022/01/25 02:00:51;;;;;;;12.82;5.38;;;;;;;-5.39;52.56;101235.41;3155336;28;20058;-63
2022/01/25 02:02:21;;;;;;;13.75;5.82;;;;;;;-5.42;52.27;101229.34;3154656;28;20483;-61
2022/01/25 02:03:54;;;;;;;12.70;6.03;;;;;;;-5.37;52.59;101238.03;3156306;28;20069;-61
2022/01/25 02:05:26;;;;;;;13.32;5.95;;;;;;;-5.42;52.51;101232.75;3150035;28;20090;-61
2022/01/25 02:06:58;;;;;;;13.63;6.15;;;;;;;-5.42;52.50;101236.97;3153101;28;20430;-61
2022/01/25 02:08:30;;;;;;;14.27;5.95;;;;;;;-5.41;52.44;101231.97;3155967;28;20043;-62
2022/01/25 02:10:01;;;;;;;16.63;5.97;;;;;;;-5.42;52.51;101227.66;3153924;28;20059;-61
2022/01/25 02:11:35;;;;;;;15.73;5.63;;;;;;;-5.38;52.34;101233.75;3152874;28;20060;-60
2022/01/25 02:13:07;;;;;;;;;;;;;;;-5.57;52.45;101232.09;3155714;28;20055;-60
2022/01/25 02:14:40;;;;;;;10.68;5.28;;;;;;;-5.49;52.69;101233.31;3151001;28;19973;-61
2022/01/25 02:16:20;;;;;;;13.05;5.95;;;;;;;-5.48;52.54;101232.50;3155792;28;20130;-63
2022/01/25 02:22:24;;;;;;;13.20;6.07;;;;;;;-5.47;52.55;101228.28;3154071;28;20123;-61
2022/01/25 02:23:47;;;;;;;17.35;6.57;;;;;;;-5.52;52.58;101225.56;3154599;28;20044;-62
2022/01/25 02:25:18;;;;;;;12.65;6.13;;;;;;;-5.51;52.46;101223.06;3151033;28;20511;-62
2022/01/25 02:26:55;;;;;;;15.13;6.50;;;;;;;-5.49;52.47;101226.56;3153886;28;20049;-62
2022/01/25 02:28:32;;;;;;;13.43;6.43;;;;;;;-5.46;52.38;101230.91;3153867;28;20063;-62
2022/01/25 02:30:04;;;;;;;13.30;6.30;;;;;;;-5.48;52.29;101222.34;3152127;28;20056;-62
2022/01/25 02:31:36;;;;;;;13.48;6.95;;;;;;;-5.52;52.47;101216.28;3151134;28;20097;-62
2022/01/25 02:33:08;;;;;;;12.65;6.30;;;;;;;-5.50;52.42;101209.59;3155367;28;20049;-62
2022/01/25 02:34:41;;;;;;;14.73;6.72;;;;;;;-5.50;52.42;101212.13;3152069;28;20048;-62
2022/01/25 02:36:17;;;;;;;16.33;6.68;;;;;;;-5.50;52.38;101212.13;3156333;28;20518;-62
2022/01/25 02:37:49;;;;;;;14.20;6.28;;;;;;;-5.52;52.53;101207.78;3151568;28;20056;-63
2022/01/25 02:39:21;;;;;;;16.38;6.75;;;;;;;-5.51;52.39;101204.44;3153944;28;20125;-62
2022/01/25 02:40:53;;;;;;;12.48;5.47;;;;;;;-5.52;52.36;101205.25;3155293;28;20398;-61
2022/01/25 02:42:25;;;;;;;11.35;5.55;;;;;;;-5.53;52.38;101204.38;3152478;28;20048;-63
2022/01/25 02:43:58;;;;;;;12.38;5.68;;;;;;;-5.54;52.31;101206.84;3155526;28;20127;-62
2022/01/25 02:45:34;;;;;;;13.00;5.95;;;;;;;-5.53;52.42;101206.03;3153707;28;20071;-62
2022/01/25 02:48:56;;;;;;;12.48;6.00;;;;;;;-5.53;52.38;101203.50;3154276;28;20109;-61
2022/01/25 02:50:29;;;;;;;12.85;6.10;;;;;;;-5.54;52.32;101209.38;3153454;28;20582;-61
2022/01/25 02:52:05;;;;;;;12.55;6.07;;;;;;;-5.52;52.23;101200.19;3152856;28;20516;-61
2022/01/25 02:53:37;;;;;;;14.55;5.70;;;;;;;-5.53;52.36;101200.97;3154342;28;20432;-62
2022/01/25 02:55:10;;;;;;;13.65;5.50;;;;;;;-5.52;52.29;101203.56;3152078;28;20052;-62
2022/01/25 02:56:44;;;;;;;11.63;5.95;;;;;;;-5.52;52.28;101195.09;3156021;28;20051;-62
2022/01/25 02:58:16;;;;;;;14.35;5.78;;;;;;;-5.53;52.22;101200.97;3153670;28;20456;-62
2022/01/25 02:59:48;;;;;;;14.70;6.20;;;;;;;-5.53;52.34;101195.88;3154259;28;20446;-62
2022/01/25 03:01:21;;;;;;;13.57;6.00;;;;;;;-5.54;52.19;101192.47;3153943;28;20116;-62
2022/01/25 03:02:52;;;;;;;14.18;5.97;;;;;;;-5.54;52.23;101192.47;3151917;28;20044;-62
2022/01/25 03:04:24;;;;;;;15.55;7.15;;;;;;;-5.52;52.15;101195.09;3156236;28;20536;-62
2022/01/25 03:05:56;;;;;;;14.52;6.55;;;;;;;-5.53;52.24;101194.25;3155985;28;20056;-62
2022/01/25 03:07:29;;;;;;;13.13;5.80;;;;;;;-5.49;52.21;101195.22;3153972;28;20093;-62
2022/01/25 03:09:02;;;;;;;12.93;5.93;;;;;;;-5.54;52.05;101184.00;3158290;28;20071;-62
2022/01/25 03:10:41;;;;;;;12.68;6.50;;;;;;;-5.50;52.14;101188.44;3153854;28;20113;-62
2022/01/25 03:12:17;;;;;;;12.45;5.63;;;;;;;-5.55;52.14;101180.59;3156185;28;20453;-60
2022/01/25 03:13:51;;;;;;;10.98;5.72;;;;;;;-5.55;52.11;101177.22;3155492;28;20481;-61
2022/01/25 03:15:30;;;;;;;13.65;5.15;;;;;;;-5.53;52.00;101178.13;3156522;28;20052;-62
2022/01/25 03:17:10;;;;;;;12.07;5.45;;;;;;;-5.54;51.99;101179.78;3154894;28;20063;-60
2022/01/25 03:18:45;;;;;;;13.10;5.00;;;;;;;-5.56;51.93;101176.34;3155430;28;20044;-60
2022/01/25 03:20:21;;;;;;;10.63;5.32;;;;;;;-5.54;51.93;101177.25;3156681;28;20130;-62
2022/01/25 03:21:53;;;;;;;10.70;5.00;;;;;;;-5.53;51.90;101173.03;3157353;28;20566;-61
2022/01/25 03:23:28;;;;;;;14.85;5.50;;;;;;;-5.52;51.62;101169.72;3155778;28;20040;-61
2022/01/25 03:25:01;;;;;;;13.77;5.80;;;;;;;-5.54;51.73;101172.19;3158145;28;20047;-61
2022/01/25 03:26:33;;;;;;;10.52;4.85;;;;;;;-5.53;51.74;101168.84;3152793;28;20143;-61
2022/01/25 03:28:04;;;;;;;11.57;4.88;;;;;;;-5.54;51.70;101154.41;3156410;28;20530;-61
2022/01/25 03:29:36;;;;;;;13.38;5.50;;;;;;;-5.53;51.71;101152.72;3156648;28;20114;-61
2022/01/25 03:31:07;;;;;;;12.43;4.60;;;;;;;-5.52;51.77;101154.50;3152917;28;20044;-61
2022/01/25 03:32:39;;;;;;;11.85;5.22;;;;;;;-5.52;51.65;101146.88;3156792;28;20063;-61
2022/01/25 03:34:11;;;;;;;10.45;4.78;;;;;;;-5.52;51.65;101144.34;3155365;28;20052;-60
2022/01/25 03:35:44;;;;;;;10.95;5.35;;;;;;;-5.51;51.58;101146.06;3155398;28;20524;-60
2022/01/25 03:37:15;;;;;;;13.93;5.38;;;;;;;-5.52;51.70;101142.66;3157671;28;20127;-62
2022/01/25 03:38:49;;;;;;;17.20;6.53;;;;;;;-5.52;51.69;101137.59;3153944;28;20047;-62
2022/01/25 03:40:19;;;;;;;;;;;;;;;-5.67;51.92;101139.50;3156304;28;20124;-63
2022/01/25 03:41:51;;;;;;;12.27;5.13;;;;;;;-5.65;52.07;101139.53;3154113;28;19969;-62
2022/01/25 03:43:23;;;;;;;11.15;5.88;;;;;;;-5.61;52.15;101126.19;3155293;28;20872;-62
2022/01/25 03:44:56;;;;;;;12.70;5.35;;;;;;;-5.58;51.94;101118.72;3153980;28;20106;-62
2022/01/25 03:46:36;;;;;;;13.75;4.72;;;;;;;-5.59;51.99;101114.41;3152703;28;20696;-62
2022/01/25 03:49:54;;;;;;;11.80;5.20;;;;;;;-5.63;52.10;101117.63;3152368;28;20063;-62
2022/01/25 03:51:25;;;;;;;11.98;5.50;;;;;;;-5.62;52.02;101121.91;3154734;28;20121;-62
2022/01/25 03:52:57;;;;;;;12.50;5.45;;;;;;;-5.62;51.86;101111.75;3154400;28;20044;-63
2022/01/25 03:54:30;;;;;;;11.18;5.35;;;;;;;-5.80;52.00;101081.41;3154721;28;20048;-63
2022/01/25 03:56:02;;;;;;;;;;;;;;;-5.80;52.15;101114.38;3154991;28;20101;-63
2022/01/25 03:57:33;;;;;;;10.93;5.90;;;;;;;-5.75;52.23;101105.31;3157271;28;20403;-62
2022/01/25 03:59:06;;;;;;;11.98;5.07;;;;;;;-5.69;52.17;101094.56;3154361;28;20048;-60
2022/01/25 04:00:39;;;;;;;12.05;5.43;;;;;;;-5.68;52.16;101093.75;3154142;28;20132;-61
2022/01/25 04:02:12;;;;;;;12.10;5.30;;;;;;;-5.67;52.17;101103.97;3154716;28;20100;-61
2022/01/25 04:03:51;;;;;;;9.52;4.22;;;;;;;-5.70;52.10;101096.22;3155558;28;20503;-61
2022/01/25 04:05:34;;;;;;;9.77;5.03;;;;;;;-5.70;52.10;101093.69;3157121;28;20574;-60
2022/01/25 04:07:10;;;;;;;13.52;5.93;;;;;;;-5.70;52.07;101096.22;3154986;28;20054;-60
2022/01/25 04:08:41;;;;;;;12.80;5.45;;;;;;;-5.68;52.07;101096.28;3157246;28;20751;-62
2022/01/25 04:10:17;;;;;;;15.23;5.45;;;;;;;-5.65;52.03;101092.19;3155855;28;20055;-62
2022/01/25 04:11:49;;;;;;;10.63;5.00;;;;;;;-5.64;51.93;101093.06;3154829;28;20052;-62
2022/01/25 04:13:20;;;;;;;12.73;5.30;;;;;;;-5.64;51.94;101095.63;3154531;28;20214;-62
2022/01/25 04:14:52;;;;;;;11.60;5.80;;;;;;;-5.63;51.88;101089.72;3154272;28;20043;-63
2022/01/25 04:16:28;;;;;;;12.32;5.20;;;;;;;-5.63;51.73;101085.50;3153677;28;20052;-61
2022/01/25 04:18:13;;;;;;;11.65;5.60;;;;;;;-5.68;51.95;101084.44;3155358;28;20076;-61
2022/01/25 04:19:57;;;;;;;9.38;5.00;;;;;;;-5.65;51.71;101088.78;3152695;28;20432;-61
2022/01/25 04:21:46;;;;;;;12.27;5.25;;;;;;;-5.65;51.80;101081.16;3157508;28;20048;-60
2022/01/25 04:25:14;;;;;;;13.55;5.85;;;;;;;-5.66;51.55;101082.84;3158323;28;20056;-60
2022/01/25 04:26:47;;;;;;;12.30;5.25;;;;;;;-5.64;51.57;101083.78;3156357;28;20603;-60
2022/01/25 04:28:19;;;;;;;9.55;5.03;;;;;;;-5.63;51.40;101079.56;3154903;28;20047;-61
2022/01/25 04:29:51;;;;;;;10.50;4.97;;;;;;;-5.60;51.31;101075.47;3156759;28;20510;-61
2022/01/25 04:31:23;;;;;;;11.45;5.45;;;;;;;-5.59;51.24;101081.41;3154621;28;20048;-60
2022/01/25 04:32:59;;;;;;;13.32;5.75;;;;;;;-5.57;51.24;101074.75;3155638;28;20102;-61
2022/01/25 04:34:41;;;;;;;10.32;5.20;;;;;;;-5.55;51.14;101078.22;3156293;28;20140;-61
2022/01/25 04:36:39;;;;;;;16.80;5.55;;;;;;;-5.54;51.18;101073.19;3153504;28;20058;-60
2022/01/25 04:49:28;;;;;;;10.43;5.20;;;;;;;-5.58;50.97;101071.34;3136047;28;20537;-61
2022/01/25 04:53:04;;;;;;;9.27;4.38;;;;;;;-5.69;50.80;101048.88;3115179;28;20051;-62
2022/01/25 04:54:48;;;;;;;13.07;5.03;;;;;;;-5.50;50.69;101077.59;3139516;28;20553;-62
2022/01/25 04:56:25;;;;;;;12.98;5.25;;;;;;;-5.53;50.63;101069.88;3154413;28;20052;-63
2022/01/25 04:58:04;;;;;;;11.07;4.97;;;;;;;-5.45;50.58;101060.00;3157766;28;20047;-61
2022/01/25 04:59:42;;;;;;;14.23;4.72;;;;;;;-5.64;50.81;101037.25;3153859;28;20602;-61
2022/01/25 05:01:14;;;;;;;12.43;5.20;;;;;;;-5.47;50.39;101066.72;3154023;28;20131;-62
2022/01/25 05:02:51;;;;;;;11.18;4.97;;;;;;;-5.44;50.49;101074.44;3153290;28;20052;-62
2022/01/25 05:04:27;;;;;;;9.70;4.63;;;;;;;-5.43;50.25;101070.22;3153343;28;20051;-61
2022/01/25 05:06:05;;;;;;;10.93;4.82;;;;;;;-5.45;50.34;101059.13;3156852;28;20056;-61
2022/01/25 05:07:44;;;;;;;10.43;4.53;;;;;;;-5.43;50.46;101067.69;3152633;28;20060;-61
2022/01/25 05:09:16;;;;;;;9.52;4.35;;;;;;;-5.43;50.39;101068.56;3154900;28;20078;-61
2022/01/25 05:10:58;;;;;;;15.73;5.38;;;;;;;-5.44;50.33;101068.47;3150887;28;20048;-61
2022/01/25 05:12:38;;;;;;;10.07;4.70;;;;;;;-5.42;50.39;101066.88;3154514;28;20064;-62
2022/01/25 05:14:17;;;;;;;14.32;5.78;;;;;;;-5.44;50.23;101056.69;3153611;28;20052;-61
2022/01/25 05:16:03;;;;;;;9.93;4.90;;;;;;;-5.43;50.19;101071.09;3154308;28;20131;-61
2022/01/25 05:17:40;;;;;;;11.75;4.63;;;;;;;-5.46;50.28;101067.56;3155075;28;20048;-62
2022/01/25 05:19:35;;;;;;;11.52;5.28;;;;;;;-5.49;50.43;101068.31;3152507;28;20046;-62
2022/01/25 05:22:57;;;;;;;11.82;5.75;;;;;;;-5.55;50.39;101066.41;3152692;28;20048;-62
2022/01/25 05:24:28;;;;;;;13.90;5.68;;;;;;;-5.55;50.48;101063.84;3156270;28;20050;-61
2022/01/25 05:26:01;;;;;;;15.38;5.63;;;;;;;-5.49;50.26;101068.31;3155847;28;20516;-61
2022/01/25 05:27:33;;;;;;;12.20;5.38;;;;;;;-5.51;50.11;101072.44;3153363;28;20139;-61
2022/01/25 05:29:04;;;;;;;15.70;5.93;;;;;;;-5.54;50.35;101072.34;3155034;28;20121;-61
2022/01/25 05:30:37;;;;;;;17.58;5.72;;;;;;;-5.52;50.25;101073.25;3155887;28;20067;-61
2022/01/25 05:32:09;;;;;;;14.75;5.57;;;;;;;-5.50;50.25;101075.06;3152817;28;20048;-61
2022/01/25 05:33:41;;;;;;;14.15;5.72;;;;;;;-5.48;50.18;101077.66;3155827;28;20036;-61
2022/01/25 05:35:13;;;;;;;18.73;6.00;;;;;;;-5.48;50.06;101077.66;3156915;28;20051;-61
2022/01/25 05:36:45;;;;;;;14.57;5.57;;;;;;;-5.66;50.09;101049.00;3151355;28;20078;-61
2022/01/25 05:38:17;;;;;;;12.02;5.75;;;;;;;-5.46;50.14;101078.59;3155067;28;20067;-61
2022/01/25 05:39:49;;;;;;;16.83;5.88;;;;;;;-5.45;49.98;101080.31;3153246;28;20078;-62
2022/01/25 05:41:21;;;;;;;10.40;5.43;;;;;;;-5.45;49.78;101082.84;3153966;28;20101;-60
2022/01/25 05:44:42;;;;;;;18.63;5.85;;;;;;;-5.43;49.66;101093.94;3152628;28;20048;-63
2022/01/25 05:46:19;;;;;;;15.85;6.10;;;;;;;-5.39;49.76;101089.84;3155710;28;20083;-60
2022/01/25 05:47:51;;;;;;;13.25;5.30;;;;;;;-5.37;49.66;101093.31;3153674;28;20136;-61
2022/01/25 05:49:23;;;;;;;19.33;6.22;;;;;;;-5.34;49.44;101096.84;3147594;28;20105;-60
2022/01/25 05:50:56;;;;;;;17.17;7.05;;;;;;;-5.31;49.62;101093.56;3146508;28;20413;-61
2022/01/25 05:52:28;;;;;;;16.23;7.15;;;;;;;-5.31;49.49;101091.88;3147449;28;20150;-60
2022/01/25 05:54:00;;;;;;;16.63;5.57;;;;;;;-5.28;49.48;101098.75;3147545;28;20048;-61
2022/01/25 05:55:32;;;;;;;24.73;6.45;;;;;;;-5.25;49.28;101091.25;3145461;28;20109;-61
2022/01/25 05:57:05;;;;;;;20.45;7.15;;;;;;;-5.21;49.23;101095.66;3148825;28;20459;-61
2022/01/25 05:58:37;;;;;;;12.13;5.13;;;;;;;-5.21;48.99;101094.78;3146196;28;20132;-60
2022/01/25 06:00:10;;;;;;;16.85;7.22;;;;;;;-5.17;48.91;101096.66;3145821;28;20642;-61
2022/01/25 06:01:44;;;;;;;13.40;6.15;;;;;;;-5.53;48.94;101029.25;3148787;28;20048;-61
2022/01/25 06:03:17;;;;;;;12.65;5.40;;;;;;;-5.11;48.73;101094.34;3147708;28;20040;-62
2022/01/25 06:04:49;;;;;;;21.25;5.72;;;;;;;-5.07;48.76;101089.44;3148643;28;20040;-61
2022/01/25 06:06:20;;;;;;;12.48;5.97;;;;;;;-5.06;48.62;101086.09;3149008;28;20052;-61
2022/01/25 06:07:52;;;;;;;16.85;6.60;;;;;;;-4.99;48.52;101091.41;3147481;28;20120;-61
2022/01/25 06:09:25;;;;;;;15.07;6.22;;;;;;;-4.96;48.42;101087.31;3149102;28;20048;-61
2022/01/25 06:10:57;;;;;;;16.05;6.80;;;;;;;-4.92;48.32;101085.75;3150059;28;20128;-61
2022/01/25 06:12:29;;;;;;;22.10;6.25;;;;;;;-4.90;48.07;101082.47;3149501;28;20052;-62
2022/01/25 06:14:01;;;;;;;12.60;5.45;;;;;;;-4.85;48.02;101080.97;3150218;28;20059;-61
2022/01/25 06:15:33;;;;;;;10.98;5.45;;;;;;;-4.78;47.92;101076.13;3148156;28;20566;-61
2022/01/25 06:17:07;;;;;;;15.40;6.65;;;;;;;-4.76;47.85;101074.47;3149517;28;20071;-61
2022/01/25 06:18:39;;;;;;;16.70;6.80;;;;;;;-4.70;47.84;101079.78;3151444;28;20346;-61
2022/01/25 06:20:12;;;;;;;11.25;5.60;;;;;;;-4.65;47.82;101070.66;3150562;28;20056;-61
2022/01/25 06:21:44;;;;;;;16.45;7.60;;;;;;;-4.61;47.72;101075.94;3149383;28;20047;-62
2022/01/25 06:23:15;;;;;;;12.40;5.55;;;;;;;-4.55;47.63;101075.28;3149069;28;20052;-62
2022/01/25 06:24:47;;;;;;;12.15;5.28;;;;;;;-4.50;47.56;101068.69;3148646;28;20083;-62
2022/01/25 06:26:19;;;;;;;13.00;5.38;;;;;;;-4.46;47.45;101065.44;3148891;28;20130;-63
2022/01/25 06:27:51;;;;;;;18.60;7.38;;;;;;;-4.39;47.39;101064.00;3148876;28;20063;-62
2022/01/25 06:29:23;;;;;;;13.05;5.57;;;;;;;-4.33;47.26;101061.66;3149445;28;20052;-63
2022/01/25 06:30:55;;;;;;;16.20;5.88;;;;;;;-4.28;47.09;101069.47;3148775;28;20126;-62
2022/01/25 06:32:28;;;;;;;20.17;6.68;;;;;;;-4.23;47.04;101066.28;3148768;28;20056;-61
2022/01/25 06:34:01;;;;;;;18.55;6.93;;;;;;;-4.19;46.98;101069.78;3148770;28;20109;-61
2022/01/25 06:35:33;;;;;;;16.03;6.47;;;;;;;-4.13;46.79;101070.84;3151320;28;20113;-61
2022/01/25 06:37:06;;;;;;;18.70;6.53;;;;;;;-4.00;46.91;101073.81;3146679;28;20391;-59
2022/01/25 06:38:38;;;;;;;17.60;6.10;;;;;;;-3.78;46.88;101067.78;3146055;28;20113;-65
2022/01/25 06:40:11;;;;;;;14.70;6.33;;;;;;;-3.49;46.98;101073.81;3149566;28;20109;-62
2022/01/25 06:41:43;;;;;;;19.52;7.32;;;;;;;-3.36;46.89;101057.25;3148140;28;20303;-62
2022/01/25 06:43:15;;;;;;;12.27;5.88;;;;;;;-2.95;46.61;101071.25;3145330;28;20109;-61
2022/01/25 06:44:47;;;;;;;28.23;11.18;;;;;;;-2.63;46.45;101078.97;3140347;28;20044;-62
2022/01/25 06:46:19;;;;;;;23.38;9.40;;;;;;;-2.35;45.87;101071.28;3140186;28;20049;-62
2022/01/25 06:47:53;;;;;;;16.17;6.85;;;;;;;-2.10;45.29;101072.81;3139550;28;20544;-63
2022/01/25 06:49:25;;;;;;;16.92;7.10;;;;;;;-1.90;44.90;101068.22;3140020;28;20052;-62
2022/01/25 06:50:57;;;;;;;18.77;7.45;;;;;;;-1.67;44.67;101058.59;3139970;28;20142;-62
2022/01/25 06:52:29;;;;;;;23.23;9.13;;;;;;;-1.46;44.14;101055.69;3144701;28;20621;-64
2022/01/25 06:54:01;;;;;;;19.70;8.00;;;;;;;-1.27;43.67;101054.44;3141161;28;20600;-61
2022/01/25 06:55:33;;;;;;;12.52;5.97;;;;;;;-1.10;43.34;101053.94;3142009;28;20060;-64
2022/01/25 06:57:05;;;;;;;17.23;7.13;;;;;;;-0.96;42.93;101055.97;3142606;28;20507;-63
2022/01/25 06:58:40;;;;;;;11.90;6.13;;;;;;;-0.81;42.58;101058.00;3140559;28;20594;-61
2022/01/25 07:00:14;;;;;;;15.00;7.47;;;;;;;-0.68;42.40;101056.59;3140883;28;20399;-64
2022/01/25 07:01:46;;;;;;;19.63;8.35;;;;;;;-0.54;41.99;101056.84;3139358;28;20051;-64
2022/01/25 07:03:20;;;;;;;20.27;7.80;;;;;;;-0.37;41.72;101060.59;3139853;28;20052;-64
2022/01/25 07:04:52;;;;;;;18.45;6.80;;;;;;;-0.25;41.61;101060.84;3141999;28;20051;-61
2022/01/25 07:06:24;;;;;;;15.52;7.15;;;;;;;-0.09;41.32;101053.44;3137325;28;20178;-61
2022/01/25 07:07:56;;;;;;;20.77;7.55;;;;;;;0.01;40.84;101052.78;3139416;28;20467;-61
2022/01/25 07:09:28;;;;;;;15.50;6.57;;;;;;;0.03;40.38;101051.13;3142886;28;20049;-61
2022/01/25 07:11:01;;;;;;;13.60;6.82;;;;;;;0.10;40.12;101054.66;3142090;28;20208;-61
2022/01/25 07:12:33;;;;;;;15.63;6.82;;;;;;;0.22;40.12;101052.28;3144953;28;20582;-61
2022/01/25 07:14:05;;;;;;;18.52;7.57;;;;;;;0.33;40.03;101062.75;3140739;28;20120;-61
2022/01/25 07:15:37;;;;;;;12.05;6.00;;;;;;;0.35;39.59;101051.66;3141786;28;20178;-63
2022/01/25 07:17:09;;;;;;;15.90;6.18;;;;;;;0.35;39.02;101054.22;3139456;28;20144;-64
2022/01/25 07:18:43;;;;;;;14.70;6.30;;;;;;;0.45;39.08;101061.22;3144592;28;20525;-64
2022/01/25 07:20:15;;;;;;;12.85;5.93;;;;;;;0.56;39.05;101055.41;3144014;28;20049;-63
2022/01/25 07:21:47;;;;;;;13.32;6.18;;;;;;;0.61;38.71;101052.06;3139051;28;20053;-63
2022/01/25 07:23:19;;;;;;;15.65;6.57;;;;;;;0.71;38.67;101053.09;3141016;28;20277;-63
2022/01/25 07:24:51;;;;;;;17.20;7.60;;;;;;;0.79;38.66;101048.91;3138338;28;20044;-63
2022/01/25 07:26:24;;;;;;;17.73;7.32;;;;;;;0.87;38.37;101051.59;3136090;28;20056;-63
2022/01/25 07:27:56;;;;;;;16.77;7.50;;;;;;;0.95;38.17;101055.16;3140206;28;20044;-63
2022/01/25 07:29:28;;;;;;;13.35;6.28;;;;;;;0.98;37.96;101057.75;3142053;28;20131;-65
2022/01/25 07:31:00;;;;;;;15.48;7.05;;;;;;;1.00;38.13;101050.94;3142289;28;20418;-65
2022/01/25 07:32:33;;;;;;;16.23;6.65;;;;;;;1.09;37.78;101052.75;3141779;28;20052;-63
2022/01/25 07:34:06;;;;;;;14.40;7.30;;;;;;;1.14;37.90;101056.25;3139033;28;20565;-63
2022/01/25 07:35:40;;;;;;;12.60;6.35;;;;;;;1.18;37.83;101052.88;3142252;28;20315;-65
2022/01/25 07:37:11;;;;;;;;;;;;;;;0.84;38.10;101015.66;3142164;28;20517;-63
2022/01/25 07:38:43;;;;;;;14.18;6.72;;;;;;;1.17;37.89;101056.28;3151080;28;19924;-63
2022/01/25 07:40:16;;;;;;;16.20;6.72;;;;;;;1.23;37.49;101058.94;3146828;28;20838;-63
2022/01/25 07:41:48;;;;;;;13.73;6.53;;;;;;;1.27;37.24;101064.97;3147005;28;20440;-63
2022/01/25 07:43:20;;;;;;;16.98;8.48;;;;;;;1.31;37.42;101061.63;3145214;28;20064;-62
2022/01/25 07:44:53;;;;;;;16.38;7.32;;;;;;;1.32;37.26;101063.34;3145862;28;20044;-63
2022/01/25 07:46:25;;;;;;;14.75;7.68;;;;;;;1.32;37.33;101058.19;3144812;28;20059;-63
2022/01/25 07:47:57;;;;;;;16.95;7.20;;;;;;;1.26;37.06;101051.28;3147224;28;20135;-63
2022/01/25 07:49:31;;;;;;;19.90;8.48;;;;;;;1.30;36.99;101053.06;3145942;28;20105;-62
2022/01/25 07:51:03;;;;;;;24.20;11.35;;;;;;;1.31;37.25;101052.22;3141810;28;20328;-63
2022/01/25 07:52:35;;;;;;;24.17;9.52;;;;;;;1.34;37.29;101057.38;3139874;28;20053;-63
2022/01/25 07:54:07;;;;;;;21.50;9.75;;;;;;;1.39;37.15;101054.88;3144918;28;20086;-63
2022/01/25 07:55:39;;;;;;;31.45;11.80;;;;;;;1.43;37.08;101048.94;3147696;28;20856;-64
2022/01/25 07:57:12;;;;;;;26.55;11.18;;;;;;;1.43;36.86;101051.50;3149402;28;20059;-63
2022/01/25 07:58:44;;;;;;;28.52;11.63;;;;;;;1.46;36.82;101050.69;3145545;28;20087;-64
2022/01/25 08:00:16;;;;;;;21.08;10.20;;;;;;;1.48;36.64;101057.56;3145689;28;20427;-63
2022/01/25 08:01:49;;;;;;;19.00;9.68;;;;;;;1.32;36.71;101027.41;3141961;28;20091;-64
2022/01/25 08:03:23;;;;;;;14.82;7.53;;;;;;;1.54;36.51;101059.34;3145368;28;20048;-63
2022/01/25 08:04:57;;;;;;;17.88;8.55;;;;;;;1.54;36.41;101059.34;3146558;28;20863;-63
2022/01/25 08:06:28;;;;;;;;;;;;;;;1.33;36.80;101057.34;3146320;28;20044;-63
2022/01/25 08:08:01;;;;;;;16.17;6.63;;;;;;;1.05;36.65;101005.69;3143334;28;19932;-64
2022/01/25 08:09:33;;;;;;;13.95;6.30;;;;;;;1.39;36.75;101059.13;3148372;28;20047;-64
2022/01/25 08:11:05;;;;;;;13.70;7.13;;;;;;;1.48;36.72;101054.09;3146676;28;20063;-64
2022/01/25 08:12:37;;;;;;;14.55;7.38;;;;;;;1.54;36.69;101059.34;3147059;28;20044;-63
2022/01/25 08:14:13;;;;;;;14.30;7.47;;;;;;;1.62;36.54;101049.13;3145231;28;20107;-64
2022/01/25 08:15:45;;;;;;;15.55;6.80;;;;;;;1.63;36.29;101045.72;3144267;28;20506;-64
2022/01/25 08:17:18;;;;;;;15.38;6.68;;;;;;;1.65;36.09;101047.47;3144538;28;20105;-64
2022/01/25 08:18:49;;;;;;;14.23;6.68;;;;;;;1.65;36.05;101042.31;3143258;28;20205;-64
2022/01/25 08:20:23;;;;;;;15.57;5.95;;;;;;;1.43;35.84;101010.44;3146054;28;20371;-64
2022/01/25 08:21:55;;;;;;;12.10;6.53;;;;;;;1.68;36.00;101036.38;3144278;28;20566;-63
2022/01/25 08:23:27;;;;;;;16.90;6.50;;;;;;;1.68;36.09;101033.81;3146943;28;20052;-63
2022/01/25 08:24:59;;;;;;;14.63;6.47;;;;;;;1.70;35.90;101029.56;3147121;28;20105;-63